»·PEaware :: SWA1337 KLAX-KLAS

SWA1337 :: KLAX-KLAS

FLIGHT INFORMATION

Flight Status: Arrived
Operator:
Southwest Airlines
More flights by this operator :: More flights under this callsign
Pilot: Adam F. (21125)
Aircraft: BOEING 737-800
(B738)
More flights by this aircraft type
Origin: KLAX Los Angeles Intl
United States
Destination: KLAS McCarran Intl
United States
More flights between these airports :: More routes between these airports
Route: +ORCKA3 MISEN KEPEC6
File this flight plan on PilotEdge
Remarks: Fairly New @ IFR
Altitude:
(Current/Filed)
24,000ft
Speed:
(Current/Filed)
325kts
Departed: 26-Nov-18 02:59 PM
Arrived: 26-Nov-18 04:07 PM
Distance/Time
Traveled:
205nm/1:07
Distance/Time
To Go:
Arrived

Flight Plot

Page will automatically refresh every two minutes.

Flight plan parsing failed; only flown route is shown


Map Options




Map Legend


Flown Route
Filed Route
Departure Airport
Arrival Airport
Navaid (VOR, NDB)
Fix

Horizontal Profiles

Position Reports

Time Latitude Longitude Heading Altitude Ground
Speed
26-Nov-18 14:15 33.947888 -118.401106 183 116ft 0kts
26-Nov-18 14:16 33.947888 -118.401106 183 116ft 0kts
26-Nov-18 14:17 33.947888 -118.401106 183 116ft 0kts
26-Nov-18 14:18 33.947888 -118.401106 183 116ft 0kts
26-Nov-18 14:19 33.947888 -118.401106 183 116ft 0kts
26-Nov-18 14:20 33.947888 -118.401106 183 116ft 0kts
26-Nov-18 14:21 33.947888 -118.401106 183 116ft 0kts
26-Nov-18 14:22 33.947888 -118.401106 183 116ft 0kts
26-Nov-18 14:23 33.947888 -118.401106 183 116ft 0kts
26-Nov-18 14:24 33.947888 -118.401106 183 116ft 0kts
26-Nov-18 14:25 33.947888 -118.401106 183 116ft 0kts
26-Nov-18 14:26 33.947888 -118.401106 183 116ft 0kts
26-Nov-18 14:27 33.947888 -118.401106 183 116ft 0kts
26-Nov-18 14:28 33.947888 -118.401106 183 116ft 0kts
26-Nov-18 14:29 33.947888 -118.401106 183 116ft 0kts
26-Nov-18 14:30 33.947888 -118.401106 183 116ft 0kts
26-Nov-18 14:31 33.947888 -118.401106 183 116ft 0kts
26-Nov-18 14:32 33.947888 -118.401106 183 116ft 0kts
26-Nov-18 14:33 33.947888 -118.401106 183 116ft 0kts
26-Nov-18 14:34 33.947888 -118.401106 183 116ft 0kts
26-Nov-18 14:35 33.947888 -118.401106 183 116ft 0kts
26-Nov-18 14:36 33.947888 -118.401106 183 116ft 0kts
26-Nov-18 14:37 33.947888 -118.401106 183 116ft 0kts
26-Nov-18 14:38 33.947888 -118.401106 183 116ft 0kts
26-Nov-18 14:39 33.947888 -118.401106 183 116ft 0kts
26-Nov-18 14:40 33.947888 -118.401106 183 116ft 0kts
26-Nov-18 14:41 33.947888 -118.401106 183 116ft 0kts
26-Nov-18 14:42 33.947888 -118.401106 183 116ft 0kts
26-Nov-18 14:43 33.947888 -118.401106 183 116ft 0kts
26-Nov-18 14:44 33.947888 -118.401106 183 116ft 0kts
26-Nov-18 14:45 33.947888 -118.401106 183 116ft 0kts
26-Nov-18 14:46 33.947888 -118.401106 183 116ft 0kts
26-Nov-18 14:47 33.947888 -118.401106 183 116ft 0kts
26-Nov-18 14:48 33.947888 -118.401106 183 116ft 0kts
26-Nov-18 14:49 33.947888 -118.401106 183 116ft 0kts
26-Nov-18 14:50 33.947888 -118.401106 183 116ft 0kts
26-Nov-18 14:51 33.947888 -118.401106 183 116ft 0kts
26-Nov-18 14:52 33.947888 -118.401106 183 116ft 0kts
26-Nov-18 14:53 33.947888 -118.401106 183 116ft 0kts
26-Nov-18 14:54 33.947888 -118.401106 183 116ft 0kts
26-Nov-18 14:55 33.948184 -118.401084 184 115ft 2kts
26-Nov-18 14:56 33.948375 -118.401397 83 115ft 0kts
26-Nov-18 14:57 33.948375 -118.401397 83 115ft 0kts
26-Nov-18 14:58 33.948375 -118.401397 83 115ft 0kts
26-Nov-18 14:59 33.948646 -118.400925 7 114ft 7kts
26-Nov-18 15:00 33.949273 -118.401553 316 116ft 0kts
26-Nov-18 15:01 33.949378 -118.401628 335 116ft 6kts
26-Nov-18 15:02 33.948528 -118.417798 263 121ft 159kts
26-Nov-18 15:03 33.945283 -118.475954 252 2277ft 178kts
26-Nov-18 15:04 33.927008 -118.526879 278 4527ft 170kts
26-Nov-18 15:09 33.892997 -118.385202 71 4590ft 191kts
26-Nov-18 15:10 33.926682 -118.338635 25 5000ft 210kts
26-Nov-18 15:11 33.980644 -118.314839 15 5292ft 229kts
26-Nov-18 15:12 34.028245 -118.288359 57 5332ft 190kts
26-Nov-18 15:13 34.045622 -118.238789 56 6300ft 175kts
26-Nov-18 15:14 34.069026 -118.193188 57 8350ft 167kts
26-Nov-18 15:15 34.095701 -118.149611 49 10284ft 166kts
26-Nov-18 15:16 34.127418 -118.110601 43 12036ft 171kts
26-Nov-18 15:17 34.154782 -118.064178 62 13800ft 173kts
26-Nov-18 15:18 34.180968 -118.015825 54 15252ft 188kts
26-Nov-18 15:19 34.202884 -117.961019 53 16823ft 188kts
26-Nov-18 15:20 34.228916 -117.912427 61 18546ft 165kts
26-Nov-18 15:21 34.253267 -117.864186 51 19433ft 177kts
26-Nov-18 15:22 34.282697 -117.812853 52 20398ft 190kts
26-Nov-18 15:23 34.313251 -117.758502 52 21338ft 203kts
26-Nov-18 15:24 34.345440 -117.701116 52 22262ft 215kts
26-Nov-18 15:25 34.380775 -117.641301 50 23181ft 225kts
26-Nov-18 15:26 34.420844 -117.574717 50 23278ft 269kts
26-Nov-18 15:27 34.468150 -117.495513 51 23261ft 296kts
26-Nov-18 15:28 34.519265 -117.409637 51 23261ft 323kts
26-Nov-18 15:29 34.570282 -117.323574 51 23265ft 323kts
26-Nov-18 15:30 34.622468 -117.235337 51 23264ft 323kts
26-Nov-18 15:31 34.674538 -117.147106 51 23263ft 323kts
26-Nov-18 15:32 34.726920 -117.058112 51 23260ft 323kts
26-Nov-18 15:33 34.780087 -116.967611 50 23254ft 336kts
26-Nov-18 15:34 34.834333 -116.874993 50 23251ft 336kts
26-Nov-18 15:35 34.888354 -116.782529 50 23250ft 336kts
26-Nov-18 15:36 34.942050 -116.689409 51 23249ft 337kts
26-Nov-18 15:37 34.995312 -116.595005 52 23250ft 338kts
26-Nov-18 15:38 35.049148 -116.499497 53 21159ft 344kts
26-Nov-18 15:39 35.101863 -116.407509 45 18823ft 327kts
26-Nov-18 15:40 35.167849 -116.342070 38 16646ft 318kts
26-Nov-18 15:41 35.236212 -116.276649 38 14362ft 313kts
26-Nov-18 15:42 35.303019 -116.212584 38 13016ft 295kts
26-Nov-18 15:43 35.369098 -116.149162 38 13033ft 327kts
26-Nov-18 15:44 35.441488 -116.079512 38 13037ft 339kts
26-Nov-18 15:45 35.517657 -116.006051 38 13016ft 351kts
26-Nov-18 15:46 35.593098 -115.933051 38 13016ft 351kts
26-Nov-18 15:47 35.668818 -115.859599 38 13023ft 350kts
26-Nov-18 15:48 35.745115 -115.785399 38 13037ft 350kts
26-Nov-18 15:49 35.821422 -115.711006 38 13047ft 350kts
26-Nov-18 15:50 35.897685 -115.637786 38 13041ft 350kts
26-Nov-18 15:51 35.971908 -115.563463 43 13026ft 350kts
26-Nov-18 15:52 36.025270 -115.464985 68 13021ft 350kts
26-Nov-18 15:53 36.034128 -115.357615 99 13018ft 293kts
26-Nov-18 15:54 36.023084 -115.264674 93 12777ft 278kts
26-Nov-18 15:55 36.016553 -115.166900 93 10383ft 293kts
26-Nov-18 15:56 36.009873 -115.068859 93 9017ft 261kts
26-Nov-18 15:57 36.004689 -114.980202 92 8097ft 257kts
26-Nov-18 15:58 35.999461 -114.892981 91 7017ft 252kts
26-Nov-18 15:59 35.994124 -114.806367 92 7007ft 253kts
26-Nov-18 16:00 35.988388 -114.719865 92 7929ft 256kts
26-Nov-18 16:01 35.994087 -114.634765 53 8039ft 253kts
26-Nov-18 16:02 36.052889 -114.614618 318 8037ft 256kts
26-Nov-18 16:03 36.070385 -114.699747 278 7588ft 261kts
26-Nov-18 16:04 36.073378 -114.786135 271 7155ft 236kts
26-Nov-18 16:05 36.072401 -114.860259 268 7088ft 203kts
26-Nov-18 16:06 36.073348 -114.929816 272 6380ft 200kts
26-Nov-18 16:07 36.073522 -114.997284 270 5392ft 190kts
26-Nov-18 16:08 36.072789 -115.057319 273 3472ft 167kts
26-Nov-18 16:09 36.073531 -115.106660 272 2354ft 141kts
26-Nov-18 16:10 36.073732 -115.147445 275 2110ft 23kts
26-Nov-18 16:11 36.074368 -115.149752 296 2117ft 0kts
26-Nov-18 16:12 36.075107 -115.151185 320 2122ft 11kts
26-Nov-18 16:13 36.077855 -115.152650 23 2122ft 11kts
26-Nov-18 16:14 36.080724 -115.151851 35 2113ft 10kts
26-Nov-18 16:15 36.079096 -115.147898 110 2102ft 9kts
26-Nov-18 16:16 36.081228 -115.145651 288 2090ft 9kts
26-Nov-18 16:17 36.081265 -115.146093 273 2091ft 0kts
26-Nov-18 16:18 36.081265 -115.146093 273 2091ft 0kts
26-Nov-18 16:19 36.081265 -115.146093 273 2091ft 0kts
26-Nov-18 16:20 36.081265 -115.146093 273 2091ft 0kts

Navigation Log

Ident Type
Flight plan parsing failed, navigation log unavailable